Time;durP1;ratioP1;P1;durP2;ratioP2;P2;SDS_P1;SDS_P2;PMS_P1;PMS_P2;Temp;Humidity;BMP_temperature;BMP_pressure;BME280_temperature;BME280_humidity;BME280_pressure;Samples;Min_cycle;Max_cycle;Signal;HPM_P1;HPM_P2
2022/01/05 00:01:10;;;;;;;15.13;14.53;;;6.00;99.90;;;;;;6212002;23;20437;-70
2022/01/05 00:03:38;;;;;;;16.00;15.30;;;6.00;99.90;;;;;;6211993;23;20414;-70
2022/01/05 00:06:05;;;;;;;14.77;14.17;;;6.10;99.90;;;;;;6211401;23;20929;-70
2022/01/05 00:08:32;;;;;;;13.87;13.37;;;6.10;99.90;;;;;;6211752;23;20452;-71
2022/01/05 00:10:59;;;;;;;13.77;13.23;;;6.10;99.90;;;;;;6211715;23;20445;-71
2022/01/05 00:13:25;;;;;;;14.93;14.23;;;6.10;99.90;;;;;;6212051;23;20709;-71
2022/01/05 00:15:52;;;;;;;13.50;12.90;;;6.10;99.90;;;;;;6211710;23;20908;-71
2022/01/05 00:18:19;;;;;;;13.63;13.03;;;6.20;99.90;;;;;;6211812;23;20401;-72
2022/01/05 00:20:47;;;;;;;12.43;12.03;;;6.20;99.90;;;;;;6212334;23;20420;-71
2022/01/05 00:23:14;;;;;;;13.10;12.60;;;6.20;99.90;;;;;;6212002;23;20410;-71
2022/01/05 00:25:40;;;;;;;13.37;12.73;;;6.30;99.90;;;;;;6212020;23;20462;-71
2022/01/05 00:28:07;;;;;;;11.63;11.23;;;6.40;99.90;;;;;;6211484;23;20443;-70
2022/01/05 00:30:34;;;;;;;11.43;11.03;;;6.40;99.90;;;;;;6211871;23;20462;-69
2022/01/05 00:33:01;;;;;;;10.90;10.50;;;6.30;99.90;;;;;;6211871;23;20471;-70
2022/01/05 00:35:28;;;;;;;11.40;11.00;;;6.40;99.90;;;;;;6211893;23;20420;-70
2022/01/05 00:37:56;;;;;;;10.87;10.47;;;6.30;99.90;;;;;;6211893;23;20421;-70
2022/01/05 00:40:23;;;;;;;11.00;10.67;;;6.40;99.90;;;;;;6211601;23;20410;-71
2022/01/05 00:42:49;;;;;;;10.97;10.57;;;6.40;99.90;;;;;;6212079;23;20410;-71
2022/01/05 00:45:16;;;;;;;10.57;10.17;;;6.40;99.90;;;;;;6211672;23;20779;-72
2022/01/05 00:47:43;;;;;;;11.27;10.80;;;6.40;99.90;;;;;;6211718;23;20494;-72
2022/01/05 00:50:10;;;;;;;10.70;10.40;;;6.40;99.90;;;;;;6211524;23;20413;-71
2022/01/05 00:52:36;;;;;;;11.13;10.73;;;6.30;99.90;;;;;;6211861;23;20411;-71
2022/01/05 00:55:05;;;;;;;10.43;10.13;;;6.30;99.90;;;;;;6212184;23;20466;-71
2022/01/05 00:57:32;;;;;;;9.97;9.67;;;6.30;99.90;;;;;;6211896;23;20504;-70
2022/01/05 00:59:58;;;;;;;10.30;9.90;;;6.30;99.90;;;;;;6211817;23;20432;-70
2022/01/05 01:02:25;;;;;;;9.93;9.63;;;6.30;99.90;;;;;;6211737;23;20412;-70
2022/01/05 01:04:52;;;;;;;10.60;10.20;;;6.40;99.90;;;;;;6211756;23;20522;-71
2022/01/05 01:07:18;;;;;;;10.90;10.50;;;6.30;99.90;;;;;;6211239;23;20771;-70
2022/01/05 01:09:45;;;;;;;10.27;9.97;;;6.40;99.90;;;;;;6211633;23;20409;-71
2022/01/05 01:12:13;;;;;;;10.47;9.97;;;6.40;99.90;;;;;;6211776;23;20642;-70
2022/01/05 01:14:40;;;;;;;10.47;10.17;;;6.40;99.90;;;;;;6211599;23;20893;-69
2022/01/05 01:17:07;;;;;;;10.13;9.83;;;6.40;99.90;;;;;;6212139;23;21124;-71
2022/01/05 01:19:33;;;;;;;10.20;9.87;;;6.40;99.90;;;;;;6213626;23;20403;-71
2022/01/05 01:22:00;;;;;;;10.03;9.73;;;6.50;99.90;;;;;;6213568;23;20458;-70
2022/01/05 01:24:27;;;;;;;10.83;10.43;;;6.50;99.90;;;;;;6213100;23;20970;-71
2022/01/05 01:26:54;;;;;;;10.30;10.00;;;6.50;99.90;;;;;;6213195;23;20705;-71
2022/01/05 01:29:22;;;;;;;10.30;10.00;;;6.50;99.90;;;;;;6213666;23;20764;-71
2022/01/05 01:31:49;;;;;;;10.10;9.80;;;6.50;99.90;;;;;;6213809;23;20435;-71
2022/01/05 01:34:16;;;;;;;10.80;10.40;;;6.60;99.90;;;;;;6213576;23;20442;-71
2022/01/05 01:36:43;;;;;;;9.90;9.60;;;6.60;99.90;;;;;;6213391;23;20410;-71
2022/01/05 01:39:10;;;;;;;10.00;9.70;;;6.70;99.90;;;;;;6213380;23;20408;-69
2022/01/05 01:41:37;;;;;;;10.03;9.73;;;6.60;99.90;;;;;;6213182;23;20459;-70
2022/01/05 01:44:04;;;;;;;10.37;10.07;;;6.70;99.90;;;;;;6213569;23;20740;-70
2022/01/05 01:46:32;;;;;;;9.97;9.67;;;6.70;99.90;;;;;;6213407;23;20403;-70
2022/01/05 01:48:58;;;;;;;10.33;10.03;;;6.70;99.90;;;;;;6213047;23;20450;-71
2022/01/05 01:51:25;;;;;;;10.80;10.50;;;6.80;99.90;;;;;;6213025;23;20409;-72
2022/01/05 01:53:52;;;;;;;11.10;10.53;;;6.80;99.90;;;;;;6213339;23;20462;-71
2022/01/05 01:56:20;;;;;;;10.73;10.43;;;6.80;99.90;;;;;;6213507;23;20423;-71
2022/01/05 01:58:48;;;;;;;10.97;10.57;;;6.80;99.90;;;;;;6213252;23;20462;-72
2022/01/05 02:01:16;;;;;;;10.57;10.27;;;6.80;99.90;;;;;;6213439;23;20421;-70
2022/01/05 02:03:44;;;;;;;10.50;10.20;;;6.90;99.90;;;;;;6212885;23;20474;-71
2022/01/05 02:06:11;;;;;;;10.27;9.97;;;6.90;99.90;;;;;;6212682;23;20978;-71
2022/01/05 02:08:38;;;;;;;10.80;10.40;;;6.90;99.90;;;;;;6212466;23;20448;-71
2022/01/05 02:11:07;;;;;;;10.57;10.27;;;6.90;99.90;;;;;;6213318;23;20422;-71
2022/01/05 02:13:34;;;;;;;10.50;10.20;;;6.90;99.90;;;;;;6213097;23;20412;-70
2022/01/05 02:16:01;;;;;;;10.80;10.50;;;6.90;99.90;;;;;;6213114;23;20411;-70
2022/01/05 02:21:15;;;;;;;10.77;10.37;;;6.90;99.90;;;;;;6212821;23;20808;-70
2022/01/05 02:23:41;;;;;;;10.73;10.33;;;7.00;99.90;;;;;;6212869;23;20415;-70
2022/01/05 02:26:11;;;;;;;10.23;9.93;;;7.00;99.90;;;;;;6212853;23;20420;-70
2022/01/05 02:28:40;;;;;;;10.30;10.00;;;7.00;99.90;;;;;;6212237;23;20479;-70
2022/01/05 02:31:06;;;;;;;10.20;9.90;;;7.00;99.90;;;;;;6212938;23;20462;-70
2022/01/05 02:33:33;;;;;;;10.50;10.13;;;7.00;99.90;;;;;;6213188;23;20478;-70
2022/01/05 02:36:00;;;;;;;11.00;10.50;;;7.10;99.90;;;;;;6213034;23;20730;-70
2022/01/05 02:38:28;;;;;;;10.40;10.10;;;7.10;99.90;;;;;;6212735;23;20410;-70
2022/01/05 02:40:56;;;;;;;9.97;9.67;;;7.10;99.90;;;;;;6212672;23;20784;-70
2022/01/05 02:43:23;;;;;;;10.30;10.00;;;7.10;99.90;;;;;;6212680;23;20474;-70
2022/01/05 02:45:50;;;;;;;10.40;10.10;;;7.10;99.90;;;;;;6213027;23;20412;-70
2022/01/05 02:48:17;;;;;;;10.27;9.97;;;7.10;99.90;;;;;;6212828;23;21002;-71
2022/01/05 02:50:43;;;;;;;10.37;10.07;;;7.10;99.90;;;;;;6212736;23;20710;-71
2022/01/05 02:53:10;;;;;;;10.20;9.90;;;7.10;99.90;;;;;;6212248;23;20899;-71
2022/01/05 02:55:38;;;;;;;10.10;9.80;;;7.10;99.90;;;;;;6212411;23;20467;-71
2022/01/05 02:58:05;;;;;;;10.47;10.17;;;7.10;99.90;;;;;;6212440;23;20896;-71
2022/01/05 03:00:32;;;;;;;10.67;10.37;;;7.10;99.90;;;;;;6213067;23;20777;-71
2022/01/05 03:02:59;;;;;;;10.80;10.50;;;7.10;99.90;;;;;;6212434;23;20412;-71
2022/01/05 03:05:26;;;;;;;10.93;10.63;;;7.10;99.90;;;;;;6212108;23;20463;-71
2022/01/05 03:07:53;;;;;;;11.90;11.60;;;7.10;99.90;;;;;;6212034;23;20825;-71
2022/01/05 03:10:20;;;;;;;12.50;12.10;;;7.00;99.90;;;;;;6212766;23;20416;-70
2022/01/05 03:12:49;;;;;;;13.20;12.80;;;6.90;99.90;;;;;;6212584;23;20412;-71
2022/01/05 03:15:16;;;;;;;13.30;12.90;;;6.80;99.90;;;;;;6212890;23;20412;-70
2022/01/05 03:17:43;;;;;;;13.13;12.73;;;6.70;99.90;;;;;;6212344;23;20407;-70
2022/01/05 03:20:12;;;;;;;12.70;12.30;;;6.70;99.90;;;;;;6212474;23;20707;-70
2022/01/05 03:22:39;;;;;;;12.77;12.37;;;6.60;99.90;;;;;;6212248;23;20462;-71
2022/01/05 03:25:08;;;;;;;13.00;12.60;;;6.60;99.90;;;;;;6212437;23;20462;-71
2022/01/05 03:27:35;;;;;;;12.67;12.20;;;6.60;99.90;;;;;;6212078;23;20412;-70
2022/01/05 03:30:04;;;;;;;12.77;12.27;;;6.60;99.90;;;;;;6212669;23;20410;-70
2022/01/05 03:32:42;;;;;;;12.60;12.20;;;6.60;99.90;;;;;;6212141;23;20407;-70
2022/01/05 03:35:09;;;;;;;12.10;11.70;;;6.60;99.90;;;;;;6212306;23;20400;-70
2022/01/05 03:37:36;;;;;;;11.70;11.33;;;6.60;99.90;;;;;;6212421;23;20743;-70
2022/01/05 03:40:03;;;;;;;12.67;12.17;;;6.60;99.90;;;;;;6214645;23;20413;-70
2022/01/05 03:42:30;;;;;;;10.97;10.67;;;6.70;99.90;;;;;;6212423;23;20416;-70
2022/01/05 03:44:57;;;;;;;11.57;11.27;;;6.70;99.90;;;;;;6212061;23;20603;-70
2022/01/05 03:47:25;;;;;;;11.20;10.90;;;6.70;99.90;;;;;;6212111;23;20479;-70
2022/01/05 03:49:51;;;;;;;10.97;10.67;;;6.70;99.90;;;;;;6212132;23;20494;-70
2022/01/05 03:52:18;;;;;;;11.03;10.73;;;6.70;99.90;;;;;;6212508;23;20403;-69
2022/01/05 03:54:45;;;;;;;10.60;10.30;;;6.80;99.90;;;;;;6212025;23;20422;-70
2022/01/05 03:57:12;;;;;;;10.30;10.00;;;6.80;99.90;;;;;;6212171;23;20646;-69
2022/01/05 03:59:38;;;;;;;10.13;9.83;;;6.80;99.90;;;;;;6211661;23;20404;-70
2022/01/05 04:02:05;;;;;;;9.90;9.60;;;6.80;99.90;;;;;;6211848;23;20888;-70
2022/01/05 04:04:34;;;;;;;10.30;10.00;;;6.90;99.90;;;;;;6212299;23;20412;-70
2022/01/05 04:07:01;;;;;;;10.13;9.77;;;6.90;99.90;;;;;;6211674;23;20508;-70
2022/01/05 04:09:27;;;;;;;10.70;10.30;;;6.90;99.90;;;;;;6211890;23;20441;-70
2022/01/05 04:11:54;;;;;;;10.23;9.93;;;6.90;99.90;;;;;;6211906;23;20409;-70
2022/01/05 04:14:21;;;;;;;11.20;10.90;;;7.00;99.90;;;;;;6211804;23;20492;-70
2022/01/05 04:16:47;;;;;;;11.10;10.80;;;7.00;99.90;;;;;;6212136;23;20415;-71
2022/01/05 04:19:14;;;;;;;11.30;11.00;;;7.00;99.90;;;;;;6211972;23;20405;-73
2022/01/05 04:21:42;;;;;;;11.00;10.70;;;6.90;99.90;;;;;;6211840;23;20416;-71
2022/01/05 04:24:09;;;;;;;11.30;11.00;;;6.90;99.90;;;;;;6211848;23;20424;-71
2022/01/05 04:26:35;;;;;;;11.10;10.70;;;6.90;99.90;;;;;;6211700;23;20407;-71
2022/01/05 04:29:02;;;;;;;11.73;11.33;;;6.90;99.90;;;;;;6211769;23;20446;-70
2022/01/05 04:31:29;;;;;;;10.60;10.30;;;6.90;99.90;;;;;;6211802;23;20412;-71
2022/01/05 04:33:55;;;;;;;10.90;10.50;;;6.90;99.90;;;;;;6211808;23;20419;-71
2022/01/05 04:36:22;;;;;;;10.90;10.60;;;6.90;99.90;;;;;;6211703;23;20408;-71
2022/01/05 04:38:50;;;;;;;10.80;10.50;;;6.90;99.90;;;;;;6212177;23;20405;-71
2022/01/05 04:41:17;;;;;;;12.60;12.20;;;6.80;99.90;;;;;;6211926;23;20771;-71
2022/01/05 04:43:43;;;;;;;13.60;13.20;;;6.80;99.90;;;;;;6211860;23;20410;-71
2022/01/05 04:46:10;;;;;;;14.43;14.03;;;6.60;99.90;;;;;;6211408;23;20413;-71
2022/01/05 04:48:37;;;;;;;14.93;14.43;;;6.50;99.90;;;;;;6211168;23;20440;-71
2022/01/05 04:51:04;;;;;;;16.10;15.60;;;6.50;99.90;;;;;;6212308;23;20414;-72
2022/01/05 04:53:31;;;;;;;16.53;16.03;;;6.50;99.90;;;;;;6213839;23;20407;-72
2022/01/05 04:55:59;;;;;;;18.60;18.00;;;6.40;99.90;;;;;;6213772;23;20460;-72
2022/01/05 04:58:26;;;;;;;19.67;18.97;;;6.40;99.90;;;;;;6212982;23;20426;-73
2022/01/05 05:00:52;;;;;;;20.47;19.77;;;6.40;99.90;;;;;;6213401;23;20413;-75
2022/01/05 05:03:19;;;;;;;20.40;19.70;;;6.30;99.90;;;;;;6213423;23;20416;-74
2022/01/05 05:05:46;;;;;;;19.23;18.63;;;6.30;99.90;;;;;;6213806;23;20485;-73
2022/01/05 05:08:12;;;;;;;20.00;19.20;;;6.30;99.90;;;;;;6212952;23;20441;-72
2022/01/05 05:10:39;;;;;;;20.77;20.07;;;6.20;99.90;;;;;;6213620;23;20410;-72
2022/01/05 05:13:11;;;;;;;21.20;20.50;;;6.20;99.90;;;;;;6213980;23;20892;-73
2022/01/05 05:15:39;;;;;;;21.30;20.60;;;6.20;99.90;;;;;;6212494;23;20473;-72
2022/01/05 05:18:06;;;;;;;21.50;20.80;;;6.20;99.90;;;;;;6213808;23;20419;-70
2022/01/05 05:20:34;;;;;;;20.50;19.70;;;6.20;99.90;;;;;;6213303;23;20929;-71
2022/01/05 05:23:00;;;;;;;21.00;20.30;;;6.20;99.90;;;;;;6213024;23;20419;-71
2022/01/05 05:25:28;;;;;;;21.20;20.40;;;6.30;99.90;;;;;;6213381;23;20796;-72
2022/01/05 05:27:54;;;;;;;21.40;20.60;;;6.30;99.90;;;;;;6213242;23;20410;-72
2022/01/05 05:30:23;;;;;;;26.60;25.60;;;6.10;99.90;;;;;;6213552;23;20547;-74
2022/01/05 05:32:49;;;;;;;25.60;24.60;;;5.50;99.90;;;;;;6213610;23;20408;-73
2022/01/05 05:35:16;;;;;;;25.63;24.70;;;4.70;99.90;;;;;;6213572;23;20467;-73
2022/01/05 05:37:43;;;;;;;27.40;26.30;;;4.40;99.90;;;;;;6212982;23;20414;-74
2022/01/05 05:40:11;;;;;;;27.83;26.67;;;4.20;99.90;;;;;;6212898;23;20406;-73
2022/01/05 05:42:37;;;;;;;26.20;25.20;;;4.20;99.90;;;;;;6213040;23;20410;-73
2022/01/05 05:45:05;;;;;;;28.40;27.20;;;4.20;99.90;;;;;;6213582;23;20404;-73
2022/01/05 05:47:33;;;;;;;28.17;26.97;;;4.10;99.90;;;;;;6212986;23;20413;-74
2022/01/05 05:50:00;;;;;;;26.90;25.80;;;4.00;99.90;;;;;;6212972;23;20993;-74
2022/01/05 05:52:27;;;;;;;29.27;28.07;;;3.90;99.90;;;;;;6213217;23;20771;-74
2022/01/05 05:54:53;;;;;;;30.07;28.40;;;3.90;99.90;;;;;;6213143;23;20416;-75
2022/01/05 05:57:20;;;;;;;28.40;27.10;;;3.80;99.90;;;;;;6213373;23;20489;-75
2022/01/05 05:59:47;;;;;;;31.13;29.70;;;3.80;99.90;;;;;;6213101;23;20406;-74
2022/01/05 06:02:13;;;;;;;30.23;29.00;;;3.70;99.90;;;;;;6212135;23;20413;-75
2022/01/05 06:04:41;;;;;;;30.83;29.43;;;3.70;99.90;;;;;;6211833;23;20419;-76
2022/01/05 06:07:08;;;;;;;30.40;29.10;;;3.70;99.90;;;;;;6212428;23;20459;-76
2022/01/05 06:09:35;;;;;;;31.53;30.20;;;3.80;99.90;;;;;;6212570;23;20513;-77
2022/01/05 06:12:02;;;;;;;30.10;28.50;;;3.80;99.90;;;;;;6213100;23;20416;-76
2022/01/05 06:14:29;;;;;;;31.20;29.90;;;3.90;99.90;;;;;;6212689;23;20409;-76
2022/01/05 06:16:55;;;;;;;31.07;29.67;;;3.80;99.90;;;;;;6212667;23;20416;-76
2022/01/05 06:19:22;;;;;;;32.70;30.90;;;3.80;99.90;;;;;;6212585;23;20415;-74
2022/01/05 06:21:50;;;;;;;31.60;30.20;;;3.80;99.90;;;;;;6212691;23;20467;-74
2022/01/05 06:24:17;;;;;;;335.80;72.33;;;3.90;99.90;;;;;;6212914;23;20439;-74
2022/01/05 06:26:44;;;;;;;32.10;30.60;;;3.90;99.90;;;;;;6212338;23;20900;-74
2022/01/05 06:29:13;;;;;;;32.33;30.83;;;3.90;99.90;;;;;;6212254;23;20959;-73
2022/01/05 06:31:39;;;;;;;30.50;29.10;;;3.90;99.90;;;;;;6211971;23;20927;-73
2022/01/05 06:34:06;;;;;;;31.70;30.20;;;4.00;99.90;;;;;;6212759;23;20413;-74
2022/01/05 06:36:33;;;;;;;33.83;31.40;;;4.00;99.90;;;;;;6212917;23;20408;-74
2022/01/05 06:39:02;;;;;;;31.40;29.97;;;4.00;99.90;;;;;;6212760;23;20427;-75
2022/01/05 06:41:28;;;;;;;32.67;31.00;;;4.00;99.90;;;;;;6212249;23;20440;-73
2022/01/05 06:43:55;;;;;;;32.47;30.77;;;4.10;99.90;;;;;;6213793;23;20397;-74
2022/01/05 06:46:22;;;;;;;33.23;31.67;;;4.10;99.90;;;;;;6212353;23;20409;-74
2022/01/05 06:48:48;;;;;;;31.77;30.23;;;4.10;99.90;;;;;;6213070;23;20406;-72
2022/01/05 06:51:15;;;;;;;33.40;31.80;;;4.20;99.90;;;;;;6215701;23;20812;-72
2022/01/05 06:53:42;;;;;;;32.80;31.30;;;4.20;99.90;;;;;;6212015;23;20412;-72
2022/01/05 06:56:10;;;;;;;33.40;31.60;;;4.10;99.90;;;;;;6212325;23;20420;-73
2022/01/05 06:58:36;;;;;;;32.90;31.30;;;4.10;99.90;;;;;;6212258;23;20779;-74
2022/01/05 07:01:03;;;;;;;32.13;30.23;;;4.20;99.90;;;;;;6212462;23;20431;-74
2022/01/05 07:03:30;;;;;;;33.90;32.37;;;4.10;99.90;;;;;;6212403;23;20463;-74
2022/01/05 07:05:56;;;;;;;33.77;32.17;;;4.00;99.90;;;;;;6211599;23;20495;-76
2022/01/05 07:08:23;;;;;;;32.27;30.63;;;3.90;99.90;;;;;;6211757;23;20449;-75
2022/01/05 07:10:50;;;;;;;30.80;29.47;;;3.80;99.90;;;;;;6212273;23;20451;-75
2022/01/05 07:13:18;;;;;;;30.63;29.33;;;3.80;99.90;;;;;;6212702;23;20413;-79
2022/01/05 07:15:44;;;;;;;31.30;29.80;;;3.80;99.90;;;;;;6211889;23;20465;-75
2022/01/05 07:18:11;;;;;;;31.20;29.80;;;3.80;99.90;;;;;;6211838;23;20912;-74
2022/01/05 07:20:38;;;;;;;30.23;28.87;;;3.80;99.90;;;;;;6212104;23;20405;-76
2022/01/05 07:23:05;;;;;;;30.17;28.87;;;3.80;99.90;;;;;;6212705;23;20408;-79
2022/01/05 07:25:31;;;;;;;29.27;27.73;;;3.90;99.90;;;;;;6213002;23;20412;-77
2022/01/05 07:27:58;;;;;;;30.47;28.83;;;4.00;99.90;;;;;;6212017;23;20422;-74
2022/01/05 07:30:27;;;;;;;29.40;28.10;;;4.00;99.90;;;;;;6212143;23;20945;-79
2022/01/05 07:32:53;;;;;;;29.93;28.63;;;4.00;99.90;;;;;;6211975;23;20417;-82
2022/01/05 07:35:20;;;;;;;31.10;29.70;;;4.10;99.90;;;;;;6212609;23;20726;-75
2022/01/05 07:37:47;;;;;;;29.90;28.53;;;4.00;99.90;;;;;;6212731;23;20420;-75
2022/01/05 07:40:14;;;;;;;29.20;27.90;;;4.00;99.90;;;;;;6212242;23;20411;-74
2022/01/05 07:42:41;;;;;;;29.00;27.70;;;4.00;99.90;;;;;;6209738;23;20814;-75
2022/01/05 07:45:10;;;;;;;29.30;28.00;;;3.90;99.90;;;;;;6212054;23;20459;-74
2022/01/05 07:47:39;;;;;;;29.87;28.23;;;3.90;99.90;;;;;;6211756;23;20532;-73
2022/01/05 07:50:11;;;;;;;27.40;26.30;;;3.90;99.90;;;;;;6212130;23;20445;-72
2022/01/05 07:52:38;;;;;;;28.90;27.30;;;3.80;99.90;;;;;;6211753;23;20488;-71
2022/01/05 07:55:07;;;;;;;27.37;26.10;;;3.80;99.90;;;;;;6212382;23;20443;-72
2022/01/05 07:57:34;;;;;;;26.57;25.40;;;3.80;99.90;;;;;;6212073;23;20923;-73
2022/01/05 08:00:01;;;;;;;25.33;24.23;;;3.80;99.90;;;;;;6212581;23;20408;-73
2022/01/05 08:02:27;;;;;;;27.10;26.00;;;3.70;99.90;;;;;;6211946;23;20472;-73
2022/01/05 08:04:55;;;;;;;27.03;25.73;;;3.70;99.90;;;;;;6212019;23;20413;-73
2022/01/05 08:07:22;;;;;;;26.23;24.70;;;3.70;99.90;;;;;;6211426;23;20444;-73
2022/01/05 08:09:49;;;;;;;24.77;23.60;;;3.70;99.90;;;;;;6212316;23;20510;-73
2022/01/05 08:12:15;;;;;;;23.57;22.57;;;3.60;99.90;;;;;;6212457;23;20412;-72
2022/01/05 08:14:42;;;;;;;25.00;23.90;;;3.70;99.90;;;;;;6211820;23;20423;-73
2022/01/05 08:17:09;;;;;;;26.33;25.00;;;3.70;99.90;;;;;;6211788;23;20412;-72
2022/01/05 08:19:36;;;;;;;24.10;23.00;;;3.70;99.90;;;;;;6212128;23;20530;-73
2022/01/05 08:22:04;;;;;;;27.17;25.70;;;3.70;99.90;;;;;;6212098;23;20438;-73
2022/01/05 08:24:31;;;;;;;23.47;22.47;;;3.70;99.90;;;;;;6208883;23;20410;-73
2022/01/05 08:26:58;;;;;;;22.50;21.43;;;3.70;99.90;;;;;;6209398;23;20780;-74
2022/01/05 08:29:24;;;;;;;20.97;20.07;;;3.80;99.90;;;;;;6211582;23;20957;-76
2022/01/05 08:31:51;;;;;;;21.03;20.13;;;3.90;99.90;;;;;;6212018;23;20408;-77
2022/01/05 08:34:18;;;;;;;21.27;20.27;;;3.90;99.90;;;;;;6212252;23;20412;-73
2022/01/05 08:36:44;;;;;;;19.80;18.80;;;4.00;99.90;;;;;;6212005;23;20448;-74
2022/01/05 08:39:15;;;;;;;18.27;17.47;;;4.00;99.90;;;;;;6211639;23;20407;-72
2022/01/05 08:41:42;;;;;;;17.27;16.50;;;3.80;99.90;;;;;;6211654;23;20395;-72
2022/01/05 08:44:09;;;;;;;16.00;15.30;;;3.80;99.90;;;;;;6209562;23;20915;-71
2022/01/05 08:46:36;;;;;;;17.07;16.27;;;3.80;99.90;;;;;;6211127;23;20440;-72
2022/01/05 08:49:03;;;;;;;17.10;15.80;;;3.80;99.90;;;;;;6211322;23;20407;-72
2022/01/05 08:51:30;;;;;;;14.80;14.10;;;3.80;99.90;;;;;;6211488;23;20456;-72
2022/01/05 08:53:56;;;;;;;15.03;14.33;;;3.90;99.90;;;;;;6211224;23;20408;-72
2022/01/05 08:56:25;;;;;;;14.50;13.80;;;3.80;99.90;;;;;;6211091;23;21008;-72
2022/01/05 08:58:52;;;;;;;13.93;12.83;;;3.80;99.90;;;;;;6211071;23;20960;-71
2022/01/05 09:01:19;;;;;;;12.97;12.27;;;3.70;99.90;;;;;;6211502;23;20461;-72
2022/01/05 09:03:45;;;;;;;12.40;11.60;;;3.70;99.90;;;;;;6211777;23;20410;-70
2022/01/05 09:06:12;;;;;;;12.23;11.60;;;3.70;99.90;;;;;;6211237;23;20475;-72
2022/01/05 09:08:39;;;;;;;12.00;11.30;;;3.80;99.90;;;;;;6210888;23;20441;-73
2022/01/05 09:11:08;;;;;;;11.00;10.50;;;4.50;99.90;;;;;;6211551;23;20438;-71
2022/01/05 09:13:36;;;;;;;11.67;11.00;;;5.30;99.90;;;;;;6211685;23;20415;-72
2022/01/05 09:16:03;;;;;;;12.10;11.50;;;6.30;99.90;;;;;;6211589;23;20407;-72
2022/01/05 09:18:29;;;;;;;11.23;10.73;;;6.60;99.90;;;;;;6211375;23;20402;-73
2022/01/05 09:20:56;;;;;;;12.37;11.87;;;6.60;99.90;;;;;;6211379;23;20473;-73
2022/01/05 09:23:23;;;;;;;13.27;12.20;;;6.70;99.90;;;;;;6211356;23;20412;-71
2022/01/05 09:25:51;;;;;;;12.90;12.00;;;7.20;99.90;;;;;;6211174;23;20408;-72
2022/01/05 09:28:17;;;;;;;12.10;11.40;;;8.00;99.90;;;;;;6211607;23;20413;-72
2022/01/05 09:30:46;;;;;;;12.33;11.43;;;8.00;99.90;;;;;;6210665;23;20440;-72
2022/01/05 09:33:13;;;;;;;11.13;10.53;;;7.70;99.90;;;;;;6210947;23;20423;-72
2022/01/05 09:35:41;;;;;;;11.30;10.70;;;7.80;99.90;;;;;;6211224;23;20467;-73
2022/01/05 09:38:20;;;;;;;11.43;10.80;;;8.30;99.90;;;;;;6211519;23;20774;-71
2022/01/05 09:43:46;;;;;;;12.50;11.73;;;9.00;99.90;;;;;;6213432;23;20378;-73
2022/01/05 09:46:32;;;;;;;12.57;12.00;;;8.60;99.90;;;;;;6212667;23;20404;-72
2022/01/05 09:49:10;;;;;;;11.70;11.20;;;8.10;99.90;;;;;;6213019;23;20407;-73
2022/01/05 09:51:40;;;;;;;12.27;11.47;;;7.90;99.90;;;;;;6213068;23;20439;-72
2022/01/05 09:54:07;;;;;;;12.67;12.03;;;7.50;99.90;;;;;;6213146;23;20413;-73
2022/01/05 09:56:35;;;;;;;11.70;11.20;;;7.10;99.90;;;;;;6213340;23;20405;-72
2022/01/05 09:59:02;;;;;;;12.43;11.70;;;6.80;99.90;;;;;;6213126;23;20404;-72
2022/01/05 10:01:31;;;;;;;12.00;11.40;;;6.70;99.90;;;;;;6212749;23;20401;-73
2022/01/05 10:03:59;;;;;;;11.57;10.97;;;6.20;99.90;;;;;;6212846;23;20415;-72
2022/01/05 10:06:26;;;;;;;11.53;10.93;;;5.90;99.90;;;;;;6212504;23;20432;-74
2022/01/05 10:08:52;;;;;;;12.87;12.07;;;5.80;99.90;;;;;;6212779;23;20409;-72
2022/01/05 10:11:20;;;;;;;11.93;11.13;;;5.60;99.90;;;;;;6212715;23;20443;-72
2022/01/05 10:13:47;;;;;;;11.40;10.70;;;5.40;99.90;;;;;;6213013;23;20409;-72
2022/01/05 10:16:14;;;;;;;11.87;11.17;;;5.00;99.90;;;;;;6212703;23;20788;-72
2022/01/05 10:18:44;;;;;;;12.40;11.40;;;5.10;99.90;;;;;;6212730;23;20446;-72
2022/01/05 10:21:14;;;;;;;11.40;10.40;;;5.00;99.90;;;;;;6212538;23;20421;-72
2022/01/05 10:23:42;;;;;;;13.17;12.10;;;5.10;99.90;;;;;;6212675;23;20745;-72
2022/01/05 10:26:27;;;;;;;11.47;10.87;;;5.10;99.90;;;;;;6212362;23;20955;-72
2022/01/05 10:28:55;;;;;;;11.90;11.30;;;5.10;99.90;;;;;;6212684;23;20449;-74
2022/01/05 10:31:23;;;;;;;11.03;10.43;;;4.80;99.90;;;;;;6212404;23;20498;-72
2022/01/05 10:33:52;;;;;;;14.63;11.77;;;4.60;99.90;;;;;;6212853;23;20727;-72
2022/01/05 10:36:19;;;;;;;12.10;11.40;;;4.40;99.90;;;;;;6212827;23;20443;-72
2022/01/05 10:38:56;;;;;;;12.13;11.33;;;4.40;99.90;;;;;;6212359;23;20762;-73
2022/01/05 10:41:25;;;;;;;12.10;11.03;;;4.80;99.90;;;;;;6212129;23;20413;-73
2022/01/05 10:44:11;;;;;;;10.73;9.80;;;5.80;99.90;;;;;;6212307;23;20900;-73
2022/01/05 10:46:39;;;;;;;11.70;11.00;;;6.50;99.90;;;;;;6212463;23;20427;-73
2022/01/05 10:49:07;;;;;;;13.90;12.63;;;7.30;98.70;;;;;;6212525;23;20409;-73
2022/01/05 10:51:36;;;;;;;12.40;11.33;;;7.80;97.70;;;;;;6212480;23;20441;-73
2022/01/05 10:54:17;;;;;;;12.20;11.40;;;9.10;96.40;;;;;;6212422;23;20464;-74
2022/01/05 10:56:44;;;;;;;12.13;11.50;;;9.40;93.20;;;;;;6212179;23;20864;-74
2022/01/05 10:59:14;;;;;;;12.43;11.37;;;9.30;92.70;;;;;;6212042;23;20888;-72
2022/01/05 11:01:41;;;;;;;11.87;11.07;;;9.00;92.60;;;;;;6212174;23;20405;-72
2022/01/05 11:04:20;;;;;;;12.70;11.73;;;9.60;93.80;;;;;;6212285;23;20510;-74
2022/01/05 11:07:03;;;;;;;12.90;12.10;;;10.60;91.60;;;;;;6212375;23;20444;-73
2022/01/05 11:09:30;;;;;;;12.27;11.67;;;10.90;88.60;;;;;;6211980;23;20432;-73
2022/01/05 11:11:57;;;;;;;12.73;12.00;;;10.00;87.70;;;;;;6212130;23;20437;-72
2022/01/05 11:14:32;;;;;;;11.43;10.70;;;9.40;90.90;;;;;;6212155;23;20760;-73
2022/01/05 11:17:01;;;;;;;12.80;12.17;;;8.10;92.80;;;;;;6211687;23;20884;-74
2022/01/05 11:19:30;;;;;;;12.80;11.80;;;7.60;93.50;;;;;;6212101;23;20427;-73
2022/01/05 11:22:07;;;;;;;11.07;10.47;;;7.30;93.90;;;;;;6212074;23;20408;-73
2022/01/05 11:24:36;;;;;;;11.97;11.13;;;7.10;94.40;;;;;;6212461;23;20381;-73
2022/01/05 11:27:04;;;;;;;11.47;10.70;;;7.20;95.70;;;;;;6212411;23;20405;-72
2022/01/05 11:29:33;;;;;;;12.00;11.20;;;7.20;94.70;;;;;;6212298;23;20422;-73
2022/01/05 11:32:01;;;;;;;10.87;10.27;;;7.30;95.10;;;;;;6211999;23;20444;-73
2022/01/05 11:34:30;;;;;;;11.07;10.30;;;7.70;93.80;;;;;;6212094;23;20405;-74
2022/01/05 11:36:58;;;;;;;14.70;13.23;;;8.70;93.90;;;;;;6212068;23;20417;-75
2022/01/05 11:39:26;;;;;;;11.60;10.90;;;9.40;91.30;;;;;;6211663;23;20916;-74
2022/01/05 11:41:54;;;;;;;12.13;11.13;;;10.10;90.30;;;;;;6211508;23;20411;-73
2022/01/05 11:44:21;;;;;;;12.27;11.40;;;11.50;89.40;;;;;;6212005;23;20408;-73
2022/01/05 11:46:48;;;;;;;13.10;12.23;;;12.80;81.60;;;;;;6212167;23;20431;-73
2022/01/05 11:49:18;;;;;;;12.20;11.50;;;12.40;78.90;;;;;;6212099;23;20404;-73
2022/01/05 11:51:52;;;;;;;11.20;10.60;;;12.60;78.80;;;;;;6212202;23;20767;-73
2022/01/05 11:54:22;;;;;;;12.07;11.27;;;11.20;81.60;;;;;;6212287;23;20738;-73
2022/01/05 11:56:51;;;;;;;12.67;11.80;;;10.10;85.70;;;;;;6212214;23;20454;-73
2022/01/05 11:59:24;;;;;;;12.33;11.60;;;9.50;90.40;;;;;;6212196;23;20892;-73
2022/01/05 12:02:02;;;;;;;11.67;11.10;;;10.00;87.80;;;;;;6211420;23;20404;-73
2022/01/05 12:04:30;;;;;;;11.07;10.30;;;9.50;88.70;;;;;;6211635;23;20396;-74
2022/01/05 12:07:11;;;;;;;12.37;11.37;;;9.20;90.60;;;;;;6211206;23;20440;-73
2022/01/05 12:09:39;;;;;;;11.77;11.00;;;8.60;91.30;;;;;;6211203;23;20630;-73
2022/01/05 12:12:24;;;;;;;10.93;10.30;;;7.80;91.70;;;;;;6211699;23;20479;-72
2022/01/05 12:14:50;;;;;;;12.50;11.70;;;7.00;94.00;;;;;;6209061;23;20458;-73
2022/01/05 12:17:20;;;;;;;12.20;11.33;;;7.10;95.40;;;;;;6211511;23;20916;-73
2022/01/05 12:20:11;;;;;;;11.40;10.80;;;7.00;94.70;;;;;;6211817;23;20412;-74
2022/01/05 12:22:40;;;;;;;12.00;11.03;;;7.00;95.10;;;;;;6211634;23;20442;-74
2022/01/05 12:25:14;;;;;;;12.40;11.50;;;6.70;95.10;;;;;;6211553;23;20408;-73
2022/01/05 12:27:55;;;;;;;11.73;11.03;;;6.70;96.40;;;;;;6211743;23;20640;-72
2022/01/05 12:30:42;;;;;;;10.80;10.30;;;6.70;96.90;;;;;;6211474;23;20718;-73
2022/01/05 12:33:18;;;;;;;12.33;11.33;;;7.00;96.80;;;;;;6211589;23;20396;-72
2022/01/05 12:35:56;;;;;;;12.27;11.47;;;7.20;96.10;;;;;;6211844;23;20393;-74
2022/01/05 12:38:45;;;;;;;11.80;10.70;;;7.10;94.60;;;;;;6211515;23;20398;-73
2022/01/05 12:41:33;;;;;;;11.20;10.23;;;7.40;94.80;;;;;;6211644;23;20724;-73
2022/01/05 12:44:04;;;;;;;11.80;11.00;;;7.70;93.70;;;;;;6211757;23;20719;-73
2022/01/05 12:46:40;;;;;;;11.43;10.73;;;7.50;93.00;;;;;;6211309;23;20388;-73
2022/01/05 12:49:13;;;;;;;11.93;11.10;;;7.00;93.60;;;;;;6211227;23;20399;-73